createdAt,value
2023-05-15T00:01:33.401Z,64.80
2023-05-15T00:04:02.250Z,64.00
2023-05-15T00:06:30.336Z,64.70
2023-05-15T00:08:58.430Z,64.00
2023-05-15T00:11:27.912Z,64.10
2023-05-15T00:13:57.448Z,64.00
2023-05-15T00:16:25.937Z,64.00
2023-05-15T00:18:54.157Z,64.00
2023-05-15T00:21:22.262Z,64.30
2023-05-15T00:23:50.317Z,64.90
2023-05-15T00:26:18.400Z,64.20
2023-05-15T00:28:46.572Z,65.10
2023-05-15T00:31:16.777Z,64.00
2023-05-15T00:33:44.911Z,64.10
2023-05-15T00:36:13.105Z,64.20
2023-05-15T00:38:41.414Z,64.10
2023-05-15T00:41:12.673Z,64.10
2023-05-15T00:43:41.278Z,64.30
2023-05-15T00:46:10.739Z,64.00
2023-05-15T00:48:40.645Z,64.40
2023-05-15T00:51:09.142Z,64.50
2023-05-15T00:53:38.519Z,64.60
2023-05-15T00:56:07.795Z,64.80
2023-05-15T00:58:37.736Z,65.10
2023-05-15T01:01:08.518Z,65.30
2023-05-15T01:03:39.925Z,65.40
2023-05-15T01:06:08.334Z,65.80
2023-05-15T01:08:43.528Z,66.00
2023-05-15T01:11:14.450Z,66.00
2023-05-15T01:13:42.986Z,66.90
2023-05-15T01:16:12.002Z,66.10
2023-05-15T01:18:41.643Z,65.90
2023-05-15T01:21:32.691Z,66.80
2023-05-15T01:24:17.388Z,66.10
2023-05-15T01:27:10.500Z,66.30
2023-05-15T01:29:44.110Z,66.30
2023-05-15T01:32:19.782Z,66.50
2023-05-15T01:34:54.993Z,66.50
2023-05-15T01:37:28.377Z,66.50
2023-05-15T01:40:01.348Z,66.30
2023-05-15T01:42:34.961Z,66.50
2023-05-15T01:45:06.095Z,66.30
2023-05-15T01:47:40.560Z,66.10
2023-05-15T01:50:12.681Z,65.60
2023-05-15T01:52:45.776Z,65.70
2023-05-15T01:55:15.832Z,65.80
2023-05-15T01:57:47.814Z,65.80
2023-05-15T02:00:17.836Z,65.80
2023-05-15T02:02:47.179Z,65.80
2023-05-15T02:05:17.393Z,65.70
2023-05-15T02:07:49.000Z,65.70
2023-05-15T02:10:19.487Z,65.90
2023-05-15T02:12:51.268Z,65.90
2023-05-15T02:15:20.074Z,66.80
2023-05-15T02:17:48.595Z,65.90
2023-05-15T02:20:16.917Z,66.10
2023-05-15T02:22:45.059Z,65.90
2023-05-15T02:25:13.358Z,66.00
2023-05-15T02:27:51.739Z,66.00
2023-05-15T02:30:31.680Z,66.00
2023-05-15T02:33:11.503Z,66.30
2023-05-15T02:35:49.501Z,66.30
2023-05-15T02:38:21.103Z,66.30
2023-05-15T02:40:50.711Z,66.30
2023-05-15T02:43:21.172Z,66.40
2023-05-15T02:45:50.569Z,66.50
2023-05-15T02:48:19.517Z,66.50
2023-05-15T02:50:47.721Z,66.60
2023-05-15T02:53:16.238Z,66.90
2023-05-15T02:55:44.468Z,67.00
2023-05-15T02:58:12.860Z,67.10
2023-05-15T03:00:42.489Z,66.80
2023-05-15T03:03:10.691Z,66.90
2023-05-15T03:05:38.898Z,66.80
2023-05-15T03:08:07.217Z,67.60
2023-05-15T03:10:35.518Z,66.60
2023-05-15T03:13:04.344Z,66.30
2023-05-15T03:15:32.581Z,66.40
2023-05-15T03:18:02.177Z,66.30
2023-05-15T03:20:30.335Z,66.40
2023-05-15T03:22:58.509Z,66.70
2023-05-15T03:25:27.367Z,66.30
2023-05-15T03:27:55.712Z,66.00
2023-05-15T03:30:23.952Z,66.20
2023-05-15T03:32:52.110Z,66.90
2023-05-15T03:35:21.722Z,66.40
2023-05-15T03:37:49.869Z,66.90
2023-05-15T03:40:18.367Z,67.20
2023-05-15T03:42:46.486Z,66.80
2023-05-15T03:45:14.686Z,66.70
2023-05-15T03:47:43.214Z,66.80
2023-05-15T03:50:12.345Z,66.90
2023-05-15T03:52:42.365Z,66.90
2023-05-15T03:55:11.069Z,67.60
2023-05-15T03:57:41.964Z,67.10
2023-05-15T04:00:11.186Z,67.20
2023-05-15T04:02:42.509Z,67.10
2023-05-15T04:05:11.387Z,67.70
2023-05-15T04:07:40.982Z,67.50
2023-05-15T04:10:09.701Z,67.80
2023-05-15T04:12:37.936Z,68.30
2023-05-15T04:15:16.936Z,68.30
2023-05-15T04:17:45.483Z,68.10
2023-05-15T04:20:15.354Z,68.40
2023-05-15T04:22:45.853Z,68.60
2023-05-15T04:25:14.800Z,68.30
2023-05-15T04:27:44.425Z,69.00
2023-05-15T04:30:13.777Z,68.70
2023-05-15T04:32:42.416Z,69.00
2023-05-15T04:35:12.601Z,69.00
2023-05-15T04:37:41.637Z,68.90
2023-05-15T04:40:13.236Z,69.10
2023-05-15T04:42:41.501Z,69.00
2023-05-15T04:45:10.316Z,68.60
2023-05-15T04:47:38.550Z,68.50
2023-05-15T04:50:07.756Z,68.70
2023-05-15T04:52:36.004Z,68.20
2023-05-15T04:55:04.342Z,68.30
2023-05-15T04:57:33.884Z,68.30
2023-05-15T05:00:02.106Z,68.70
2023-05-15T05:02:30.346Z,69.00
2023-05-15T05:04:58.489Z,69.70
2023-05-15T05:07:26.638Z,69.70
2023-05-15T05:09:54.858Z,70.50
2023-05-15T05:12:23.008Z,70.40
2023-05-15T05:14:52.541Z,70.50
2023-05-15T05:17:20.624Z,70.20
2023-05-15T05:19:48.795Z,70.70
2023-05-15T05:22:16.970Z,71.30
2023-05-15T05:24:45.235Z,71.00
2023-05-15T05:27:13.785Z,70.10
2023-05-15T05:29:41.878Z,70.20
2023-05-15T05:32:11.738Z,70.60
2023-05-15T05:34:39.844Z,69.90
2023-05-15T05:37:07.969Z,70.30
2023-05-15T05:39:36.334Z,69.20
2023-05-15T05:42:04.555Z,69.10
2023-05-15T05:44:34.302Z,69.40
2023-05-15T05:47:02.461Z,69.40
2023-05-15T05:49:32.035Z,70.70
2023-05-15T05:52:07.997Z,69.80
2023-05-15T05:54:37.101Z,69.70
2023-05-15T05:57:05.702Z,69.20
2023-05-15T05:59:33.880Z,68.60
2023-05-15T06:02:02.030Z,68.80
2023-05-15T06:04:33.316Z,69.00
2023-05-15T06:07:01.942Z,69.10
2023-05-15T06:09:30.364Z,69.20
2023-05-15T06:11:58.518Z,68.90
2023-05-15T06:14:26.707Z,69.00
2023-05-15T06:16:54.959Z,68.60
2023-05-15T06:19:23.185Z,68.50
2023-05-15T06:21:52.778Z,68.40
2023-05-15T06:24:20.932Z,69.50
2023-05-15T06:26:50.419Z,69.80
2023-05-15T06:29:19.386Z,69.30
2023-05-15T06:31:47.500Z,68.90
2023-05-15T06:34:15.641Z,68.70
2023-05-15T06:36:43.776Z,69.10
2023-05-15T06:39:13.312Z,69.80
2023-05-15T06:41:41.462Z,69.80
2023-05-15T06:44:13.714Z,69.10
2023-05-15T06:46:42.126Z,68.50
2023-05-15T06:49:10.311Z,68.20
2023-05-15T06:51:38.532Z,68.10
2023-05-15T06:54:06.821Z,68.90
2023-05-15T06:56:36.348Z,69.00
2023-05-15T06:59:04.415Z,69.60
2023-05-15T07:01:33.112Z,69.20
2023-05-15T07:04:01.269Z,69.40
2023-05-15T07:06:31.824Z,69.40
2023-05-15T07:09:00.150Z,68.90
2023-05-15T07:11:29.219Z,68.60
2023-05-15T07:13:58.699Z,69.30
2023-05-15T07:16:26.754Z,68.70
2023-05-15T07:18:54.847Z,70.00
2023-05-15T07:21:22.972Z,69.70
2023-05-15T07:23:51.245Z,69.00
2023-05-15T07:26:27.937Z,68.30
2023-05-15T07:29:02.156Z,67.30
2023-05-15T07:31:31.377Z,67.00
2023-05-15T07:33:59.476Z,68.20
2023-05-15T07:36:27.567Z,68.10
2023-05-15T07:38:55.647Z,68.30
2023-05-15T07:41:23.743Z,67.30
2023-05-15T07:43:51.816Z,67.70
2023-05-15T07:46:21.416Z,66.70
2023-05-15T07:48:49.556Z,67.20
2023-05-15T07:51:17.676Z,67.30
2023-05-15T07:53:45.836Z,66.30
2023-05-15T07:56:13.909Z,65.80
2023-05-15T07:58:42.155Z,66.30
2023-05-15T08:01:10.631Z,66.50
2023-05-15T08:03:40.220Z,66.60
2023-05-15T08:06:08.493Z,66.80
2023-05-15T08:08:36.714Z,66.40
2023-05-15T08:11:05.057Z,66.40
2023-05-15T08:13:33.092Z,66.40
2023-05-15T08:16:01.261Z,68.30
2023-05-15T08:18:29.440Z,65.30
2023-05-15T08:20:58.955Z,62.90
2023-05-15T08:23:27.177Z,61.80
2023-05-15T08:25:55.305Z,62.90
2023-05-15T08:28:23.425Z,60.80
2023-05-15T08:30:51.583Z,61.40
2023-05-15T08:33:19.773Z,63.30
2023-05-15T08:35:47.976Z,61.20
2023-05-15T08:38:17.632Z,58.80
2023-05-15T08:40:50.233Z,58.00
2023-05-15T08:43:22.158Z,58.70
2023-05-15T08:45:50.756Z,58.40
2023-05-15T08:48:21.222Z,57.60
2023-05-15T08:50:49.897Z,58.70
2023-05-15T08:53:19.677Z,59.50
2023-05-15T08:55:47.929Z,58.50
2023-05-15T08:58:17.082Z,57.90
2023-05-15T09:00:45.466Z,59.90
2023-05-15T09:03:16.473Z,61.10
2023-05-15T09:05:45.051Z,59.50
2023-05-15T09:08:13.568Z,61.00
2023-05-15T09:10:43.527Z,59.10
2023-05-15T09:13:13.309Z,57.60
2023-05-15T09:15:42.482Z,57.20
2023-05-15T09:18:10.882Z,58.30
2023-05-15T09:20:39.538Z,58.00
2023-05-15T09:23:24.207Z,57.20
2023-05-15T09:25:56.733Z,57.70
2023-05-15T09:28:30.186Z,58.10
2023-05-15T09:31:01.048Z,57.20
2023-05-15T09:33:31.366Z,56.90
2023-05-15T09:35:59.714Z,57.40
2023-05-15T09:38:28.128Z,57.50
2023-05-15T09:41:04.830Z,57.80
2023-05-15T09:43:36.487Z,59.50
2023-05-15T09:46:04.748Z,58.10
2023-05-15T09:48:33.759Z,57.40
2023-05-15T09:51:03.210Z,57.60
2023-05-15T09:53:31.931Z,56.60
2023-05-15T09:56:00.302Z,55.20
2023-05-15T09:58:30.250Z,56.10
2023-05-15T10:01:01.350Z,57.60
2023-05-15T10:03:29.712Z,55.00
2023-05-15T10:06:01.830Z,57.70
2023-05-15T10:08:29.947Z,54.70
2023-05-15T10:11:01.726Z,54.10
2023-05-15T10:13:35.471Z,54.20
2023-05-15T10:16:04.776Z,53.80
2023-05-15T10:18:34.977Z,53.90
2023-05-15T10:21:04.621Z,54.80
2023-05-15T10:23:35.856Z,52.60
2023-05-15T10:26:09.714Z,50.90
2023-05-15T10:28:42.879Z,50.40
2023-05-15T10:31:13.018Z,50.20
2023-05-15T10:33:42.330Z,50.90
2023-05-15T10:36:11.780Z,50.70
2023-05-15T10:38:40.763Z,50.70
2023-05-15T10:43:46.060Z,54.60
2023-05-15T10:46:15.838Z,50.90
2023-05-15T10:48:44.592Z,53.70
2023-05-15T10:51:20.504Z,49.50
2023-05-15T10:53:48.758Z,48.70
2023-05-15T10:56:17.825Z,50.70
2023-05-15T10:58:49.176Z,49.20
2023-05-15T11:01:32.002Z,49.00
2023-05-15T11:04:08.712Z,49.00
2023-05-15T11:06:37.648Z,49.40
2023-05-15T11:09:39.357Z,47.60
2023-05-15T11:12:10.102Z,48.70
2023-05-15T11:14:41.894Z,48.90
2023-05-15T11:17:11.889Z,47.60
2023-05-15T11:19:57.783Z,47.10
2023-05-15T11:22:31.724Z,47.80
2023-05-15T11:25:01.895Z,46.00
2023-05-15T11:27:32.336Z,45.10
2023-05-15T11:30:20.579Z,43.70
2023-05-15T11:32:53.649Z,40.90
2023-05-15T11:35:27.981Z,43.00
2023-05-15T11:37:57.823Z,44.10
2023-05-15T11:40:28.802Z,41.60
2023-05-15T11:43:01.972Z,42.80
2023-05-15T11:45:33.421Z,43.50
2023-05-15T11:48:03.806Z,43.20
2023-05-15T11:50:36.183Z,44.00
2023-05-15T11:53:06.312Z,43.50
2023-05-15T11:55:36.071Z,42.90
2023-05-15T11:58:05.355Z,43.00
2023-05-15T12:00:35.425Z,43.90
2023-05-15T12:03:04.958Z,42.90
2023-05-15T12:05:33.270Z,41.90
2023-05-15T12:08:03.194Z,41.80
2023-05-15T12:10:32.618Z,40.00
2023-05-15T12:13:01.215Z,37.90
2023-05-15T12:15:29.347Z,39.40
2023-05-15T12:17:59.308Z,38.70
2023-05-15T12:20:27.727Z,38.10
2023-05-15T12:22:56.048Z,38.50
2023-05-15T12:25:24.272Z,38.20
2023-05-15T12:27:52.669Z,38.70
2023-05-15T12:30:21.229Z,42.80
2023-05-15T12:32:49.826Z,47.20
2023-05-15T12:35:20.469Z,49.20
2023-05-15T12:37:48.737Z,50.90
2023-05-15T12:40:21.577Z,57.50
2023-05-15T12:42:54.581Z,60.30
2023-05-15T12:45:24.392Z,59.30
2023-05-15T12:47:52.874Z,56.40
2023-05-15T12:50:24.404Z,58.20
2023-05-15T12:52:54.140Z,59.50
2023-05-15T12:55:27.020Z,58.80
2023-05-15T12:57:57.767Z,61.80
2023-05-15T13:00:27.182Z,59.90
2023-05-15T13:02:57.779Z,61.70
2023-05-15T13:05:28.273Z,64.10
2023-05-15T13:07:59.105Z,62.90
2023-05-15T13:10:27.745Z,64.40
2023-05-15T13:12:57.926Z,66.40
2023-05-15T13:15:28.334Z,66.90
2023-05-15T13:18:00.322Z,66.10
2023-05-15T13:20:33.766Z,66.20
2023-05-15T13:23:02.790Z,65.20
2023-05-15T13:25:32.427Z,63.60
2023-05-15T13:28:03.660Z,64.20
2023-05-15T13:30:32.921Z,61.90
2023-05-15T13:33:01.711Z,62.90
2023-05-15T13:35:31.696Z,57.00
2023-05-15T13:37:59.898Z,58.80
2023-05-15T13:40:28.521Z,56.70
2023-05-15T13:42:56.737Z,56.50
2023-05-15T13:45:24.993Z,58.10
2023-05-15T13:47:53.285Z,58.10
2023-05-15T13:50:21.980Z,60.00
2023-05-15T13:52:51.692Z,58.90
2023-05-15T13:55:22.197Z,59.10
2023-05-15T13:57:51.347Z,59.30
2023-05-15T14:00:20.537Z,59.10
2023-05-15T14:02:48.899Z,58.70
2023-05-15T14:05:19.298Z,58.00
2023-05-15T14:07:47.499Z,58.30
2023-05-15T14:10:17.123Z,58.20
2023-05-15T14:12:46.898Z,61.10
2023-05-15T14:15:15.020Z,63.00
2023-05-15T14:17:43.401Z,64.50
2023-05-15T14:20:12.664Z,65.90
2023-05-15T14:22:42.005Z,65.00
2023-05-15T14:25:11.079Z,67.20
2023-05-15T14:27:40.963Z,62.60
2023-05-15T14:30:10.529Z,63.10
2023-05-15T14:32:39.217Z,63.40
2023-05-15T14:35:07.852Z,62.30
2023-05-15T14:37:37.504Z,65.30
2023-05-15T14:40:06.956Z,63.00
2023-05-15T14:42:35.292Z,62.40
2023-05-15T14:45:05.284Z,62.80
2023-05-15T14:47:33.980Z,60.90
2023-05-15T14:50:02.227Z,60.90
2023-05-15T14:52:30.514Z,61.20
2023-05-15T14:55:08.415Z,61.80
2023-05-15T14:57:37.727Z,62.10
2023-05-15T15:00:09.513Z,61.20
2023-05-15T15:02:37.865Z,59.10
2023-05-15T15:05:07.464Z,60.50
2023-05-15T15:08:00.977Z,61.30
2023-05-15T15:10:29.839Z,61.20
2023-05-15T15:12:58.223Z,60.60
2023-05-15T15:15:28.760Z,62.00
2023-05-15T15:17:58.097Z,61.30
2023-05-15T15:20:28.056Z,59.60
2023-05-15T15:22:57.073Z,59.90
2023-05-15T15:25:26.093Z,59.50
2023-05-15T15:27:54.337Z,59.60
2023-05-15T15:30:22.462Z,61.50
2023-05-15T15:32:52.071Z,59.50
2023-05-15T15:35:20.284Z,60.00
2023-05-15T15:37:48.663Z,59.90
2023-05-15T15:40:16.855Z,59.90
2023-05-15T15:42:44.996Z,59.90
2023-05-15T15:45:13.266Z,60.10
2023-05-15T15:47:41.503Z,59.50
2023-05-15T15:50:12.119Z,58.40
2023-05-15T15:52:40.271Z,58.30
2023-05-15T15:55:10.011Z,58.80
2023-05-15T15:57:38.477Z,59.10
2023-05-15T16:00:08.378Z,57.40
2023-05-15T16:02:36.840Z,58.20
2023-05-15T16:05:05.703Z,59.30
2023-05-15T16:07:35.539Z,60.20
2023-05-15T16:10:27.277Z,59.20
2023-05-15T16:12:52.041Z,56.50
2023-05-15T16:15:23.383Z,57.40
2023-05-15T16:17:54.087Z,56.40
2023-05-15T16:20:22.936Z,54.70
2023-05-15T16:22:52.562Z,55.40
2023-05-15T16:25:20.793Z,54.00
2023-05-15T16:27:48.894Z,53.60
2023-05-15T16:30:17.088Z,53.80
2023-05-15T16:32:45.281Z,56.20
2023-05-15T16:35:13.479Z,55.30
2023-05-15T16:37:41.817Z,56.30
2023-05-15T16:40:12.189Z,56.00
2023-05-15T16:42:41.484Z,56.30
2023-05-15T16:45:10.389Z,56.30
2023-05-15T16:47:39.967Z,56.70
2023-05-15T16:50:09.506Z,55.00
2023-05-15T16:52:39.152Z,55.60
2023-05-15T16:55:08.125Z,53.80
2023-05-15T16:57:37.772Z,53.80
2023-05-15T17:00:08.490Z,54.40
2023-05-15T17:02:36.898Z,54.20
2023-05-15T17:05:05.594Z,54.50
2023-05-15T17:07:34.248Z,56.60
2023-05-15T17:10:02.515Z,55.40
2023-05-15T17:12:30.899Z,56.30
2023-05-15T17:15:01.128Z,57.80
2023-05-15T17:17:29.537Z,55.70
2023-05-15T17:19:59.321Z,56.60
2023-05-15T17:22:29.249Z,56.40
2023-05-15T17:24:57.369Z,57.40
2023-05-15T17:27:26.005Z,57.60
2023-05-15T17:29:54.742Z,57.70
2023-05-15T17:32:24.652Z,59.30
2023-05-15T17:34:52.888Z,59.80
2023-05-15T17:37:21.374Z,60.10
2023-05-15T17:39:50.412Z,59.50
2023-05-15T17:42:18.621Z,59.90
2023-05-15T17:44:46.846Z,59.50
2023-05-15T17:47:14.949Z,60.50
2023-05-15T17:49:44.465Z,60.50
2023-05-15T17:52:12.657Z,59.90
2023-05-15T17:54:40.951Z,60.30
2023-05-15T17:57:09.152Z,61.40
2023-05-15T17:59:37.476Z,62.00
2023-05-15T18:02:06.420Z,62.00
2023-05-15T18:04:34.753Z,62.20
2023-05-15T18:07:04.325Z,62.80
2023-05-15T18:09:32.603Z,62.90
2023-05-15T18:12:00.750Z,61.60
2023-05-15T18:14:28.890Z,61.00
2023-05-15T18:16:57.539Z,61.00
2023-05-15T18:19:25.836Z,61.70
2023-05-15T18:21:54.016Z,63.30
2023-05-15T18:24:23.661Z,64.40
2023-05-15T18:26:51.787Z,64.40
2023-05-15T18:29:20.152Z,64.40
2023-05-15T18:31:48.355Z,64.40
2023-05-15T18:34:16.743Z,64.10
2023-05-15T18:36:45.007Z,64.60
2023-05-15T18:39:15.459Z,64.60
2023-05-15T18:41:45.118Z,64.80
2023-05-15T18:44:13.291Z,64.80
2023-05-15T18:46:41.817Z,65.00
2023-05-15T18:49:10.060Z,63.50
2023-05-15T18:51:38.160Z,62.60
2023-05-15T18:54:06.349Z,63.50
2023-05-15T18:56:34.493Z,63.20
2023-05-15T18:59:04.120Z,63.90
2023-05-15T19:01:32.562Z,64.20
2023-05-15T19:04:00.673Z,64.20
2023-05-15T19:06:28.787Z,64.00
2023-05-15T19:08:56.912Z,64.00
2023-05-15T19:11:25.091Z,64.20
2023-05-15T19:13:53.448Z,64.00
2023-05-15T19:16:26.928Z,63.00
2023-05-15T19:18:55.646Z,63.30
2023-05-15T19:21:23.892Z,64.20
2023-05-15T19:23:52.259Z,64.40
2023-05-15T19:26:21.618Z,64.50
2023-05-15T19:28:49.876Z,65.10
2023-05-15T19:31:30.772Z,64.60
2023-05-15T19:34:01.899Z,64.80
2023-05-15T19:36:30.019Z,63.90
2023-05-15T19:38:58.192Z,64.00
2023-05-15T19:41:26.340Z,66.00
2023-05-15T19:43:54.495Z,64.80
2023-05-15T19:46:22.964Z,65.80
2023-05-15T19:48:51.160Z,64.10
2023-05-15T19:51:20.808Z,64.60
2023-05-15T19:53:48.972Z,65.20
2023-05-15T19:56:17.343Z,65.40
2023-05-15T19:58:45.514Z,66.40
2023-05-15T20:01:13.818Z,66.00
2023-05-15T20:03:42.277Z,66.90
2023-05-15T20:06:11.712Z,66.20
2023-05-15T20:08:42.229Z,66.20
2023-05-15T20:11:10.650Z,66.00
2023-05-15T20:13:39.293Z,65.70
2023-05-15T20:16:10.460Z,66.00
2023-05-15T20:18:40.497Z,66.30
2023-05-15T20:21:08.821Z,65.60
2023-05-15T20:23:37.170Z,65.50
2023-05-15T20:26:06.781Z,65.70
2023-05-15T20:28:35.118Z,65.80
2023-05-15T20:31:03.328Z,65.50
2023-05-15T20:33:31.968Z,66.00
2023-05-15T20:36:00.269Z,65.50
2023-05-15T20:38:28.614Z,66.60
2023-05-15T20:40:57.303Z,66.20
2023-05-15T20:43:26.841Z,66.90
2023-05-15T20:45:55.171Z,67.00
2023-05-15T20:48:23.652Z,66.90
2023-05-15T20:50:53.964Z,67.20
2023-05-15T20:53:22.271Z,67.50
2023-05-15T20:55:50.581Z,67.80
2023-05-15T20:58:18.824Z,68.00
2023-05-15T21:00:48.381Z,68.10
2023-05-15T21:03:16.871Z,68.10
2023-05-15T21:05:45.711Z,68.20
2023-05-15T21:08:13.843Z,68.00
2023-05-15T21:10:42.268Z,67.90
2023-05-15T21:13:10.817Z,68.20
2023-05-15T21:15:38.973Z,68.50
2023-05-15T21:18:08.518Z,68.00
2023-05-15T21:20:36.735Z,67.70
2023-05-15T21:23:04.999Z,67.50
2023-05-15T21:25:34.860Z,68.20
2023-05-15T21:28:03.498Z,67.50
2023-05-15T21:30:32.356Z,68.80
2023-05-15T21:33:00.679Z,68.80
2023-05-15T21:35:31.711Z,69.10
2023-05-15T21:38:00.397Z,69.50
2023-05-15T21:40:28.865Z,69.40
2023-05-15T21:42:57.132Z,69.50
2023-05-15T21:45:25.373Z,69.80
2023-05-15T21:47:53.516Z,70.10
2023-05-15T21:50:21.716Z,70.50
2023-05-15T21:52:51.810Z,70.40
2023-05-15T21:55:20.428Z,70.90
2023-05-15T21:57:48.580Z,71.20
2023-05-15T22:00:17.500Z,72.30
2023-05-15T22:02:46.298Z,72.10
2023-05-15T22:05:15.154Z,73.30
2023-05-15T22:07:44.482Z,73.10
2023-05-15T22:10:16.634Z,73.10
2023-05-15T22:12:45.067Z,74.60
2023-05-15T22:15:14.584Z,75.70
2023-05-15T22:17:42.835Z,74.50
2023-05-15T22:20:12.406Z,75.80
2023-05-15T22:22:43.030Z,75.90
2023-05-15T22:25:13.084Z,76.20
2023-05-15T22:27:42.582Z,76.40
2023-05-15T22:30:11.404Z,75.10
2023-05-15T22:32:39.636Z,74.80
2023-05-15T22:35:09.914Z,76.00
2023-05-15T22:37:38.384Z,75.30
2023-05-15T22:40:08.086Z,75.50
2023-05-15T22:42:37.807Z,77.10
2023-05-15T22:45:07.161Z,76.70
2023-05-15T22:47:35.484Z,76.80
2023-05-15T22:50:03.874Z,76.10
2023-05-15T22:52:32.025Z,76.00
2023-05-15T22:55:00.192Z,75.80
2023-05-15T22:57:28.989Z,73.20
2023-05-15T22:59:58.806Z,71.80
2023-05-15T23:02:27.248Z,71.30
2023-05-15T23:04:55.570Z,71.50
2023-05-15T23:07:23.903Z,71.90
2023-05-15T23:09:52.204Z,72.30
2023-05-15T23:12:20.348Z,73.50
2023-05-15T23:14:48.728Z,72.20
2023-05-15T23:17:18.247Z,71.60
2023-05-15T23:19:46.844Z,74.50
2023-05-15T23:22:15.057Z,74.90
2023-05-15T23:24:43.593Z,75.70
2023-05-15T23:27:12.086Z,75.80
2023-05-15T23:29:40.191Z,76.20
2023-05-15T23:32:09.069Z,75.50
2023-05-15T23:34:39.059Z,75.80
2023-05-15T23:37:07.250Z,76.30
2023-05-15T23:39:36.167Z,76.50
2023-05-15T23:42:04.475Z,77.20
2023-05-15T23:44:32.651Z,77.20
2023-05-15T23:47:01.243Z,76.90
2023-05-15T23:49:29.437Z,77.10
2023-05-15T23:51:59.223Z,77.20
2023-05-15T23:54:27.936Z,76.80
2023-05-15T23:56:56.114Z,77.10
2023-05-15T23:59:24.690Z,77.90
